createdAt,value
2022-09-28T00:01:25.036Z,2.78
2022-09-28T00:03:57.378Z,3.95
2022-09-28T00:06:27.429Z,1.83
2022-09-28T00:08:58.340Z,2.53
2022-09-28T00:11:28.075Z,3.50
2022-09-28T00:14:00.002Z,4.45
2022-09-28T00:16:31.068Z,4.60
2022-09-28T00:18:59.926Z,5.03
2022-09-28T00:21:30.137Z,4.82
2022-09-28T00:24:15.041Z,4.10
2022-09-28T00:26:46.647Z,4.55
2022-09-28T00:29:22.045Z,5.20
2022-09-28T00:31:53.448Z,4.97
2022-09-28T00:34:21.944Z,5.90
2022-09-28T00:36:50.540Z,4.72
2022-09-28T00:39:20.479Z,5.28
2022-09-28T00:41:48.883Z,5.45
2022-09-28T00:44:35.501Z,7.25
2022-09-28T00:47:12.874Z,5.88
2022-09-28T00:49:44.868Z,10.10
2022-09-28T00:52:16.664Z,5.32
2022-09-28T00:54:48.838Z,5.38
2022-09-28T00:57:17.981Z,7.00
2022-09-28T00:59:46.833Z,6.72
2022-09-28T01:02:15.319Z,9.13
2022-09-28T01:04:43.728Z,7.80
2022-09-28T01:07:13.506Z,7.40
2022-09-28T01:09:42.273Z,6.93
2022-09-28T01:12:12.050Z,8.85
2022-09-28T01:14:42.157Z,8.15
2022-09-28T01:17:15.770Z,7.32
2022-09-28T01:20:31.144Z,6.43
2022-09-28T01:23:32.341Z,7.25
2022-09-28T01:26:23.261Z,5.47
2022-09-28T01:28:58.560Z,6.70
2022-09-28T01:31:32.833Z,6.63
2022-09-28T01:34:06.323Z,6.80
2022-09-28T01:36:40.485Z,5.45
2022-09-28T01:39:11.798Z,5.80
2022-09-28T01:41:46.558Z,6.50
2022-09-28T01:44:18.718Z,6.07
2022-09-28T01:46:49.842Z,7.65
2022-09-28T01:49:22.165Z,8.27
2022-09-28T01:51:56.227Z,7.40
2022-09-28T01:54:32.338Z,6.90
2022-09-28T01:57:10.423Z,8.88
2022-09-28T01:59:45.316Z,9.18
2022-09-28T02:02:18.776Z,7.80
2022-09-28T02:04:52.269Z,6.88
2022-09-28T02:07:25.343Z,7.40
2022-09-28T02:09:58.421Z,8.23
2022-09-28T02:12:33.643Z,9.07
2022-09-28T02:15:12.529Z,7.90
2022-09-28T02:17:41.700Z,7.53
2022-09-28T02:20:11.705Z,9.65
2022-09-28T02:22:44.733Z,9.00
2022-09-28T02:25:22.889Z,9.10
2022-09-28T02:27:56.914Z,11.07
2022-09-28T02:30:25.524Z,12.60
2022-09-28T02:32:57.798Z,13.63
2022-09-28T02:35:26.587Z,10.23
2022-09-28T02:37:56.152Z,12.95
2022-09-28T02:40:30.322Z,11.70
2022-09-28T02:43:06.584Z,11.20
2022-09-28T02:45:51.311Z,13.65
2022-09-28T02:51:23.042Z,12.65
2022-09-28T02:54:18.931Z,13.30
2022-09-28T02:57:01.880Z,14.85
2022-09-28T02:59:46.716Z,9.95
2022-09-28T03:02:25.642Z,11.45
2022-09-28T03:05:07.606Z,10.63
2022-09-28T03:07:39.416Z,9.95
2022-09-28T03:10:16.946Z,10.82
2022-09-28T03:12:47.317Z,15.52
2022-09-28T03:15:24.742Z,11.52
2022-09-28T03:17:54.268Z,12.48
2022-09-28T03:20:22.705Z,8.63
2022-09-28T03:23:12.315Z,9.07
2022-09-28T03:25:39.552Z,9.65
2022-09-28T03:28:07.933Z,8.52
2022-09-28T03:30:57.827Z,11.05
2022-09-28T03:33:26.270Z,8.30
2022-09-28T03:35:55.326Z,9.57
2022-09-28T03:38:24.918Z,11.50
2022-09-28T03:40:54.550Z,8.68
2022-09-28T03:43:23.350Z,8.85
2022-09-28T03:45:54.700Z,8.65
2022-09-28T03:48:31.201Z,8.13
2022-09-28T03:51:02.258Z,8.45
2022-09-28T03:53:31.224Z,8.30
2022-09-28T03:56:04.681Z,7.15
2022-09-28T03:58:35.897Z,8.35
2022-09-28T04:01:06.662Z,9.40
2022-09-28T04:03:36.619Z,8.30
2022-09-28T04:06:05.225Z,8.68
2022-09-28T04:08:33.567Z,8.80
2022-09-28T04:11:02.762Z,7.80
2022-09-28T04:13:32.119Z,7.03
2022-09-28T04:16:02.399Z,8.57
2022-09-28T04:18:36.234Z,13.43
2022-09-28T04:21:32.610Z,7.18
2022-09-28T04:24:12.052Z,10.00
2022-09-28T04:26:40.452Z,8.27
2022-09-28T04:29:15.991Z,9.52
2022-09-28T04:31:50.541Z,10.30
2022-09-28T04:34:22.987Z,11.18
2022-09-28T04:36:52.148Z,10.38
2022-09-28T04:39:21.484Z,9.32
2022-09-28T04:41:53.183Z,12.32
2022-09-28T04:44:21.562Z,8.90
2022-09-28T04:46:52.708Z,11.13
2022-09-28T04:49:29.086Z,11.45
2022-09-28T04:52:06.629Z,10.73
2022-09-28T04:54:36.327Z,12.98
2022-09-28T04:57:06.001Z,8.57
2022-09-28T04:59:34.476Z,14.68
2022-09-28T05:02:02.862Z,10.20
2022-09-28T05:04:53.307Z,11.20
2022-09-28T05:07:37.225Z,13.93
2022-09-28T05:10:08.235Z,11.95
2022-09-28T05:12:38.781Z,10.48
2022-09-28T05:15:07.788Z,11.70
2022-09-28T05:17:36.412Z,11.32
2022-09-28T05:20:20.174Z,11.88
2022-09-28T05:22:48.584Z,9.85
2022-09-28T05:25:17.380Z,10.43
2022-09-28T05:28:04.281Z,10.77
2022-09-28T05:30:48.662Z,9.95
2022-09-28T05:33:33.899Z,11.05
2022-09-28T05:36:14.687Z,10.13
2022-09-28T05:38:44.356Z,13.38
2022-09-28T05:41:13.065Z,10.32
2022-09-28T05:43:41.444Z,11.25
2022-09-28T05:46:09.850Z,10.75
2022-09-28T05:48:41.632Z,11.40
2022-09-28T05:51:11.013Z,9.40
2022-09-28T05:53:40.756Z,11.30
2022-09-28T05:56:09.329Z,11.48
2022-09-28T05:58:40.454Z,10.70
2022-09-28T06:01:09.967Z,11.30
2022-09-28T06:03:38.618Z,10.40
2022-09-28T06:06:07.335Z,11.75
2022-09-28T06:08:35.938Z,11.23
2022-09-28T06:11:25.819Z,12.95
2022-09-28T06:13:56.150Z,11.20
2022-09-28T06:16:25.659Z,12.60
2022-09-28T06:18:54.106Z,11.45
2022-09-28T06:21:41.224Z,12.30
2022-09-28T06:24:10.188Z,12.40
2022-09-28T06:26:40.540Z,10.55
2022-09-28T06:29:09.526Z,12.25
2022-09-28T06:31:37.996Z,10.52
2022-09-28T06:34:06.354Z,10.68
2022-09-28T06:36:35.354Z,9.68
2022-09-28T06:39:04.172Z,10.73
2022-09-28T06:41:34.211Z,8.02
2022-09-28T06:44:14.842Z,7.80
2022-09-28T06:47:02.350Z,5.88
2022-09-28T06:49:55.321Z,6.18
2022-09-28T06:52:53.010Z,4.22
2022-09-28T06:55:40.906Z,4.55
2022-09-28T06:58:12.821Z,5.88
2022-09-28T07:00:43.004Z,5.05
2022-09-28T07:03:13.884Z,4.95
2022-09-28T07:06:12.371Z,6.00
2022-09-28T07:09:17.235Z,5.63
2022-09-28T07:12:10.716Z,6.40
2022-09-28T07:14:56.197Z,4.28
2022-09-28T07:17:26.456Z,7.20
2022-09-28T07:19:59.051Z,4.75
2022-09-28T07:22:41.226Z,5.70
2022-09-28T07:25:14.178Z,4.55
2022-09-28T07:28:01.423Z,5.05
2022-09-28T07:30:35.937Z,4.97
2022-09-28T07:33:12.430Z,5.13
2022-09-28T07:35:52.570Z,5.97
2022-09-28T07:38:22.747Z,3.92
2022-09-28T07:41:08.854Z,4.45
2022-09-28T07:43:40.064Z,4.53
2022-09-28T07:46:12.081Z,4.13
2022-09-28T07:48:46.048Z,4.38
2022-09-28T07:51:32.763Z,3.08
2022-09-28T07:54:19.319Z,4.45
2022-09-28T07:57:16.536Z,3.70
2022-09-28T08:00:04.687Z,2.45
2022-09-28T08:02:48.971Z,3.05
2022-09-28T08:05:25.370Z,4.05
2022-09-28T08:07:57.667Z,4.28
2022-09-28T08:10:27.130Z,2.15
2022-09-28T08:13:08.837Z,3.22
2022-09-28T08:15:56.252Z,4.18
2022-09-28T08:18:34.991Z,2.95
2022-09-28T08:21:24.156Z,2.55
2022-09-28T08:23:53.378Z,3.05
2022-09-28T08:26:21.756Z,2.53
2022-09-28T08:28:51.167Z,3.38
2022-09-28T08:31:39.738Z,2.45
2022-09-28T08:34:17.379Z,3.45
2022-09-28T08:37:07.096Z,2.00
2022-09-28T08:39:58.325Z,3.13
2022-09-28T08:42:43.301Z,3.05
2022-09-28T08:45:28.356Z,2.38
2022-09-28T08:48:32.443Z,3.58
2022-09-28T08:51:25.058Z,3.10
2022-09-28T08:54:11.934Z,2.80
2022-09-28T08:56:58.026Z,3.38
2022-09-28T08:59:29.545Z,3.33
2022-09-28T09:02:05.286Z,3.45
2022-09-28T09:04:35.255Z,3.25
2022-09-28T09:07:28.758Z,3.33
2022-09-28T09:10:42.555Z,2.55
2022-09-28T09:13:28.115Z,3.13
2022-09-28T09:18:57.001Z,3.80
2022-09-28T09:21:42.061Z,2.10
2022-09-28T09:24:26.994Z,3.70
2022-09-28T09:27:06.973Z,3.33
2022-09-28T09:29:56.628Z,2.17
2022-09-28T09:32:36.561Z,4.88
2022-09-28T09:35:27.316Z,2.00
2022-09-28T09:38:30.354Z,2.03
2022-09-28T09:41:47.118Z,2.80
2022-09-28T09:44:56.982Z,2.20
2022-09-28T09:47:52.598Z,3.40
2022-09-28T09:50:31.349Z,1.88
2022-09-28T09:53:06.313Z,2.13
2022-09-28T09:55:41.775Z,1.80
2022-09-28T09:58:49.923Z,2.92
2022-09-28T10:01:33.378Z,2.13
2022-09-28T10:04:40.673Z,2.33
2022-09-28T10:07:25.223Z,1.30
2022-09-28T10:09:59.212Z,1.80
2022-09-28T10:12:38.194Z,1.83
2022-09-28T10:15:08.716Z,1.85
2022-09-28T10:17:51.108Z,1.02
2022-09-28T10:20:40.865Z,2.78
2022-09-28T10:23:33.854Z,7.13
2022-09-28T10:26:06.254Z,2.10
2022-09-28T10:28:40.721Z,1.90
2022-09-28T10:31:35.417Z,2.17
2022-09-28T10:34:07.179Z,2.08
2022-09-28T10:36:48.154Z,4.13
2022-09-28T10:39:29.096Z,2.30
2022-09-28T10:41:59.979Z,3.05
2022-09-28T10:44:33.566Z,1.35
2022-09-28T10:47:09.998Z,1.08
2022-09-28T10:49:47.200Z,1.35
2022-09-28T10:52:37.955Z,1.83
2022-09-28T10:55:26.746Z,2.13
2022-09-28T10:57:55.683Z,2.53
2022-09-28T11:00:38.938Z,1.83
2022-09-28T11:03:21.664Z,1.50
2022-09-28T11:06:00.224Z,1.95
2022-09-28T11:08:32.841Z,0.88
2022-09-28T11:11:14.498Z,0.93
2022-09-28T11:13:48.930Z,2.92
2022-09-28T11:16:26.806Z,1.88
2022-09-28T11:18:56.826Z,2.92
2022-09-28T11:21:29.679Z,1.63
2022-09-28T11:24:07.300Z,1.35
2022-09-28T11:26:42.622Z,5.95
2022-09-28T11:29:24.479Z,2.20
2022-09-28T11:32:15.550Z,1.80
2022-09-28T11:35:04.637Z,1.40
2022-09-28T11:38:09.155Z,2.03
2022-09-28T11:41:08.024Z,3.00
2022-09-28T11:43:59.370Z,2.22
2022-09-28T11:46:38.030Z,2.83
2022-09-28T11:49:24.588Z,3.00
2022-09-28T11:51:57.211Z,1.67
2022-09-28T11:54:32.798Z,1.95
2022-09-28T11:57:05.644Z,3.22
2022-09-28T11:59:39.693Z,3.85
2022-09-28T12:02:17.561Z,2.45
2022-09-28T12:04:55.653Z,2.35
2022-09-28T12:07:31.276Z,5.25
2022-09-28T12:10:10.232Z,6.00
2022-09-28T12:19:14.314Z,2.88
2022-09-28T12:24:20.875Z,2.90
2022-09-28T12:26:55.994Z,4.63
2022-09-28T12:29:30.257Z,2.88
2022-09-28T12:32:06.981Z,5.93
2022-09-28T12:34:35.423Z,1.85
2022-09-28T12:37:22.524Z,3.33
2022-09-28T12:40:10.199Z,2.63
2022-09-28T12:42:55.961Z,3.55
2022-09-28T12:46:10.522Z,2.30
2022-09-28T12:49:33.190Z,3.30
2022-09-28T12:51:51.341Z,3.45
2022-09-28T12:54:34.403Z,4.72
2022-09-28T12:57:19.253Z,4.28
2022-09-28T13:00:02.069Z,5.32
2022-09-28T13:03:15.993Z,2.28
2022-09-28T13:06:10.382Z,2.05
2022-09-28T13:08:48.888Z,3.15
2022-09-28T13:11:27.234Z,2.63
2022-09-28T13:14:11.936Z,3.47
2022-09-28T13:16:57.185Z,5.20
2022-09-28T13:19:38.490Z,2.42
2022-09-28T13:22:24.699Z,3.25
2022-09-28T13:24:56.709Z,5.10
2022-09-28T13:27:32.610Z,3.50
2022-09-28T13:30:03.935Z,2.72
2022-09-28T13:32:35.479Z,2.53
2022-09-28T13:35:05.351Z,3.03
2022-09-28T13:37:34.312Z,3.08
2022-09-28T13:40:06.037Z,2.30
2022-09-28T13:43:06.869Z,2.00
2022-09-28T13:45:53.298Z,3.60
2022-09-28T13:48:26.878Z,3.50
2022-09-28T13:51:38.582Z,2.72
2022-09-28T13:54:29.408Z,3.75
2022-09-28T13:57:11.833Z,1.92
2022-09-28T13:59:53.367Z,2.25
2022-09-28T14:02:34.720Z,4.47
2022-09-28T14:05:06.619Z,2.75
2022-09-28T14:07:58.403Z,3.30
2022-09-28T14:10:51.555Z,4.07
2022-09-28T14:13:57.313Z,2.47
2022-09-28T14:16:27.806Z,3.30
2022-09-28T14:18:59.310Z,2.17
2022-09-28T14:22:06.282Z,2.05
2022-09-28T14:24:45.928Z,2.55
2022-09-28T14:27:33.527Z,1.75
2022-09-28T14:30:19.902Z,1.90
2022-09-28T14:32:54.330Z,4.50
2022-09-28T14:35:31.237Z,0.80
2022-09-28T14:38:24.129Z,0.77
2022-09-28T14:41:12.537Z,1.55
2022-09-28T14:44:00.228Z,0.70
2022-09-28T14:46:32.202Z,0.50
2022-09-28T14:49:03.555Z,1.05
2022-09-28T14:51:46.637Z,2.72
2022-09-28T14:54:20.826Z,1.63
2022-09-28T14:57:07.980Z,0.60
2022-09-28T14:59:43.373Z,1.00
2022-09-28T15:02:20.618Z,1.05
2022-09-28T15:04:51.732Z,1.35
2022-09-28T15:07:22.920Z,1.13
2022-09-28T15:09:54.511Z,1.50
2022-09-28T15:12:26.898Z,0.68
2022-09-28T15:14:58.750Z,0.88
2022-09-28T15:17:30.643Z,1.48
2022-09-28T15:20:29.938Z,0.50
2022-09-28T15:23:00.227Z,1.58
2022-09-28T15:25:31.849Z,1.20
2022-09-28T15:28:03.399Z,0.98
2022-09-28T15:30:33.584Z,1.20
2022-09-28T15:33:18.075Z,0.98
2022-09-28T15:35:50.920Z,0.60
2022-09-28T15:38:19.459Z,0.60
2022-09-28T15:40:49.538Z,1.23
2022-09-28T15:43:28.966Z,0.90
2022-09-28T15:46:07.364Z,2.78
2022-09-28T15:48:44.239Z,1.85
2022-09-28T15:51:13.392Z,1.08
2022-09-28T15:53:51.086Z,1.42
2022-09-28T15:56:20.854Z,2.03
2022-09-28T15:59:09.590Z,1.42
2022-09-28T16:01:39.683Z,2.00
2022-09-28T16:04:35.612Z,1.73
2022-09-28T16:07:20.986Z,1.85
2022-09-28T16:10:01.385Z,3.22
2022-09-28T16:12:41.818Z,1.98
2022-09-28T16:15:18.184Z,1.23
2022-09-28T16:18:04.975Z,1.90
2022-09-28T16:21:24.434Z,1.40
2022-09-28T16:24:04.435Z,2.75
2022-09-28T16:30:32.435Z,1.67
2022-09-28T16:33:57.942Z,3.17
2022-09-28T16:38:15.736Z,2.97
2022-09-28T16:40:52.767Z,1.58
2022-09-28T16:44:09.916Z,1.10
2022-09-28T16:50:32.289Z,1.75
2022-09-28T16:58:26.925Z,1.92
2022-09-28T17:05:21.803Z,1.30
2022-09-28T17:07:59.885Z,1.73
2022-09-28T17:10:55.690Z,2.10
2022-09-28T17:13:31.355Z,1.25
2022-09-28T17:16:00.448Z,1.88
2022-09-28T17:18:31.686Z,1.75
2022-09-28T17:21:04.312Z,1.80
2022-09-28T17:23:32.983Z,1.77
2022-09-28T17:26:02.787Z,1.77
2022-09-28T17:28:34.038Z,1.45
2022-09-28T17:31:03.090Z,1.20
2022-09-28T17:33:31.554Z,1.27
2022-09-28T17:36:04.910Z,1.20
2022-09-28T17:38:34.551Z,2.75
2022-09-28T17:41:02.975Z,1.52
2022-09-28T17:43:31.425Z,1.70
2022-09-28T17:46:00.310Z,2.95
2022-09-28T17:48:28.685Z,1.98
2022-09-28T17:50:57.189Z,3.63
2022-09-28T17:53:27.070Z,5.50
2022-09-28T17:55:55.834Z,3.42
2022-09-28T17:58:24.212Z,3.75
2022-09-28T18:00:53.067Z,4.05
2022-09-28T18:03:23.892Z,3.47
2022-09-28T18:06:02.392Z,4.45
2022-09-28T18:08:34.659Z,3.78
2022-09-28T18:11:03.149Z,3.63
2022-09-28T18:13:31.573Z,4.65
2022-09-28T18:16:00.256Z,3.90
2022-09-28T18:18:30.108Z,5.38
2022-09-28T18:20:58.533Z,4.78
2022-09-28T18:23:27.223Z,4.35
2022-09-28T18:25:57.392Z,3.67
2022-09-28T18:28:25.792Z,4.40
2022-09-28T18:30:54.362Z,4.95
2022-09-28T18:33:22.755Z,3.72
2022-09-28T18:35:52.914Z,4.72
2022-09-28T18:38:21.850Z,2.88
2022-09-28T18:40:50.382Z,3.88
2022-09-28T18:43:20.188Z,3.47
2022-09-28T18:45:49.207Z,2.50
2022-09-28T18:48:17.633Z,4.20
2022-09-28T18:50:48.277Z,4.18
2022-09-28T18:53:19.885Z,4.43
2022-09-28T18:55:48.734Z,3.60
2022-09-28T18:58:24.149Z,3.20
2022-09-28T19:00:53.825Z,3.58
2022-09-28T19:03:30.871Z,3.50
2022-09-28T19:05:59.690Z,2.70
2022-09-28T19:08:28.543Z,3.45
2022-09-28T19:11:05.518Z,2.88
2022-09-28T19:13:35.854Z,3.65
2022-09-28T19:16:08.723Z,4.05
2022-09-28T19:18:37.855Z,3.25
2022-09-28T19:21:08.042Z,3.80
2022-09-28T19:23:37.657Z,3.22
2022-09-28T19:26:08.401Z,3.03
2022-09-28T19:28:38.271Z,4.65
2022-09-28T19:31:09.035Z,4.05
2022-09-28T19:33:38.135Z,3.53
2022-09-28T19:36:08.576Z,3.10
2022-09-28T19:38:39.030Z,3.70
2022-09-28T19:41:11.575Z,5.72
2022-09-28T19:43:42.171Z,3.60
2022-09-28T19:46:11.010Z,4.20
2022-09-28T19:48:42.275Z,4.80
2022-09-28T19:51:11.053Z,2.95
2022-09-28T19:53:41.116Z,4.68
2022-09-28T19:56:09.727Z,3.53
2022-09-28T19:58:38.119Z,3.35
2022-09-28T20:01:08.387Z,3.28
2022-09-28T20:03:38.617Z,4.88
2022-09-28T20:06:07.582Z,3.75
2022-09-28T20:08:35.910Z,4.22
2022-09-28T20:11:05.390Z,5.43
2022-09-28T20:13:36.261Z,3.72
2022-09-28T20:16:06.666Z,4.18
2022-09-28T20:18:38.066Z,4.50
2022-09-28T20:21:09.411Z,6.53
2022-09-28T20:23:38.301Z,8.57
2022-09-28T20:26:09.154Z,10.60
2022-09-28T20:28:38.142Z,28.02
2022-09-28T20:31:08.848Z,25.30
2022-09-28T20:33:38.972Z,14.13
2022-09-28T20:36:09.134Z,19.17
2022-09-28T20:38:40.280Z,13.10
2022-09-28T20:41:10.247Z,13.05
2022-09-28T20:43:39.857Z,14.55
2022-09-28T20:46:11.146Z,15.38
2022-09-28T20:48:41.843Z,11.25
2022-09-28T20:51:13.930Z,14.18
2022-09-28T20:53:47.611Z,12.32
2022-09-28T20:56:19.787Z,11.02
2022-09-28T20:58:50.592Z,12.02
2022-09-28T21:01:21.293Z,13.50
2022-09-28T21:03:53.660Z,10.20
2022-09-28T21:06:23.593Z,14.07
2022-09-28T21:08:52.804Z,15.15
2022-09-28T21:11:23.156Z,12.52
2022-09-28T21:13:54.022Z,13.90
2022-09-28T21:16:22.600Z,9.38
2022-09-28T21:18:54.231Z,8.80
2022-09-28T21:21:24.603Z,8.82
2022-09-28T21:23:53.334Z,7.53
2022-09-28T21:26:25.624Z,8.40
2022-09-28T21:28:54.617Z,8.32
2022-09-28T21:31:28.793Z,10.65
2022-09-28T21:33:59.728Z,7.97
2022-09-28T21:36:28.264Z,9.10
2022-09-28T21:38:56.651Z,8.27
2022-09-28T21:41:25.842Z,8.10
2022-09-28T21:43:54.385Z,7.80
2022-09-28T21:46:22.822Z,6.75
2022-09-28T21:48:54.693Z,8.35
2022-09-28T21:51:24.466Z,7.10
2022-09-28T21:53:53.996Z,6.80
2022-09-28T21:56:24.050Z,7.95
2022-09-28T21:58:52.552Z,7.60
2022-09-28T22:01:22.376Z,7.95
2022-09-28T22:03:52.678Z,6.63
2022-09-28T22:06:23.025Z,8.05
2022-09-28T22:08:52.830Z,8.35
2022-09-28T22:11:22.956Z,7.55
2022-09-28T22:13:53.400Z,6.63
2022-09-28T22:16:25.464Z,5.78
2022-09-28T22:18:54.619Z,6.03
2022-09-28T22:21:24.505Z,6.55
2022-09-28T22:23:54.919Z,5.40
2022-09-28T22:26:25.910Z,6.72
2022-09-28T22:28:56.504Z,6.53
2022-09-28T22:31:26.604Z,7.07
2022-09-28T22:33:55.176Z,7.30
2022-09-28T22:36:23.878Z,7.88
2022-09-28T22:38:52.362Z,6.95
2022-09-28T22:41:22.487Z,7.75
2022-09-28T22:43:52.404Z,6.35
2022-09-28T22:46:22.337Z,8.02
2022-09-28T22:48:52.967Z,7.00
2022-09-28T22:51:22.238Z,7.68
2022-09-28T22:53:50.690Z,8.07
2022-09-28T22:56:19.471Z,7.38
2022-09-28T22:58:49.251Z,5.65
2022-09-28T23:01:21.016Z,7.65
2022-09-28T23:03:50.769Z,7.50
2022-09-28T23:06:20.946Z,9.75
2022-09-28T23:08:50.524Z,6.93
2022-09-28T23:11:22.309Z,7.93
2022-09-28T23:13:52.556Z,7.50
2022-09-28T23:16:23.443Z,6.47
2022-09-28T23:18:52.759Z,9.10
2022-09-28T23:21:23.160Z,8.55
2022-09-28T23:23:56.762Z,7.72
2022-09-28T23:26:27.643Z,9.20
2022-09-28T23:28:58.260Z,10.43
2022-09-28T23:31:28.392Z,8.40
2022-09-28T23:34:00.963Z,8.63
2022-09-28T23:36:29.969Z,10.77
2022-09-28T23:38:58.375Z,11.65
2022-09-28T23:41:26.832Z,11.63
2022-09-28T23:43:55.275Z,11.88
2022-09-28T23:46:25.370Z,9.68
2022-09-28T23:48:53.895Z,9.25
2022-09-28T23:51:22.244Z,10.35
2022-09-28T23:53:50.593Z,10.10
2022-09-28T23:56:19.143Z,10.93
2022-09-28T23:58:47.498Z,9.65
